Time;durP1;ratioP1;P1;durP2;ratioP2;P2;SDS_P1;SDS_P2;PMS_P1;PMS_P2;Temp;Humidity;BMP_temperature;BMP_pressure;BME280_temperature;BME280_humidity;BME280_pressure;Samples;Min_cycle;Max_cycle;Signal;HPM_P1;HPM_P2
2020/12/19 00:12:24;;;;;;;69.92;31.17;;;;;;;3.60;100.00;101470.77;10409616;85;21188;-81
2020/12/19 00:27:29;;;;;;;57.05;27.98;;;;;;;3.45;100.00;101465.28;10455317;85;21443;-84
2020/12/19 00:42:37;;;;;;;58.73;27.45;;;;;;;2.84;100.00;101454.22;10729169;82;21478;-83
2020/12/19 00:57:41;;;;;;;48.87;25.82;;;;;;;2.42;100.00;101444.05;10440244;84;21138;-84
2020/12/19 01:12:45;;;;;;;52.20;26.65;;;;;;;2.39;100.00;101435.11;10725091;82;21067;-82
2020/12/19 01:27:49;;;;;;;60.75;27.27;;;;;;;2.31;100.00;101419.83;10655558;82;21425;-83
2020/12/19 01:42:54;;;;;;;54.55;25.97;;;;;;;2.46;100.00;101422.78;10733103;82;21518;-83
2020/12/19 01:57:59;;;;;;;112.12;40.45;;;;;;;2.43;100.00;101419.84;10682459;82;21029;-82
2020/12/19 02:13:05;;;;;;;51.50;26.60;;;;;;;2.43;100.00;101409.92;10683248;82;21017;-82
2020/12/19 02:28:10;;;;;;;62.43;29.23;;;;;;;2.38;100.00;101412.69;10759825;81;21083;-82
2020/12/19 02:43:14;;;;;;;71.50;28.35;;;;;;;2.64;100.00;101397.95;10804332;81;21052;-81
2020/12/19 02:58:18;;;;;;;60.12;28.52;;;;;;;2.64;100.00;101397.95;10721943;82;21032;-83
2020/12/19 03:13:23;;;;;;;91.08;34.08;;;;;;;2.74;100.00;101404.92;10767995;81;21561;-84
2020/12/19 03:28:27;;;;;;;48.08;25.10;;;;;;;1.81;100.00;101471.13;10769115;81;21061;-83
2020/12/19 03:43:31;;;;;;;105.05;38.60;;;;;;;1.26;100.00;101380.62;10694871;82;21072;-83
2020/12/19 03:58:36;;;;;;;87.00;33.73;;;;;;;1.48;100.00;101364.44;10801073;82;21120;-80
2020/12/19 04:13:40;;;;;;;119.60;41.45;;;;;;;1.48;100.00;101364.44;10673967;82;21021;-81
2020/12/19 04:28:45;;;;;;;113.25;42.83;;;;;;;1.48;100.00;101354.09;10674923;82;21028;-81
2020/12/19 04:43:50;;;;;;;63.80;28.62;;;;;;;1.45;100.00;101359.34;10475185;83;21012;-86
2020/12/19 04:58:57;;;;;;;53.13;25.70;;;;;;;1.55;100.00;101341.80;10486156;83;21186;-86
2020/12/19 05:14:05;;;;;;;67.17;29.63;;;;;;;1.58;100.00;101355.45;10719990;82;21088;-87
2020/12/19 05:29:10;;;;;;;72.05;34.95;;;;;;;1.70;100.00;101361.95;10692521;81;21089;-82
2020/12/19 05:44:18;;;;;;;138.47;61.77;;;;;;;1.79;100.00;101354.34;10764273;81;21531;-83
2020/12/19 05:59:25;;;;;;;66.10;28.40;;;;;;;1.90;100.00;101379.41;10720024;82;20997;-84
2020/12/19 06:14:34;;;;;;;51.27;24.33;;;;;;;1.87;100.00;101352.78;10309285;84;21027;-86
2020/12/19 06:29:39;;;;;;;78.83;33.80;;;;;;;2.00;100.00;101346.28;10468546;84;21035;-86
2020/12/19 06:44:43;;;;;;;67.32;32.85;;;;;;;1.91;100.00;101368.14;10392072;84;21510;-88
2020/12/19 06:59:48;;;;;;;78.62;36.13;;;;;;;1.76;100.00;101378.58;10738408;82;21567;-87
2020/12/19 07:14:52;;;;;;;330.45;113.60;;;;;;;1.84;100.00;101375.73;10729801;82;21106;-86
2020/12/19 07:30:01;;;;;;;95.77;38.33;;;;;;;1.81;100.00;101371.50;10339394;84;21035;-87
2020/12/19 07:45:06;;;;;;;139.85;68.37;;;;;;;1.96;100.00;101388.23;10501874;84;21075;-89
2020/12/19 08:00:11;;;;;;;127.93;54.00;;;;;;;2.12;100.00;101388.55;10730704;82;21020;-89
2020/12/19 08:15:20;;;;;;;116.53;51.28;;;;;;;2.12;100.00;101378.19;10729422;81;21005;-87
2020/12/19 08:30:31;;;;;;;152.00;61.88;;;;;;;2.46;100.00;101386.52;10764114;81;21040;-88
2020/12/19 08:45:38;;;;;;;120.87;51.35;;;;;;;2.38;100.00;101384.66;10736119;81;21632;-87
2020/12/19 09:00:43;;;;;;;128.70;54.73;;;;;;;2.38;100.00;101400.20;10764055;82;21559;-87
2020/12/19 09:15:48;;;;;;;118.70;51.90;;;;;;;2.14;100.00;101395.83;10730033;82;21001;-88
2020/12/19 09:30:53;;;;;;;205.83;77.70;;;;;;;1.90;100.00;101413.05;10733232;82;21022;-87
2020/12/19 09:45:57;;;;;;;171.87;63.83;;;;;;;1.45;100.00;101399.00;10728362;81;21084;-87
2020/12/19 10:01:03;;;;;;;134.87;50.28;;;;;;;1.59;100.00;101395.95;10741964;81;21089;-93
2020/12/19 10:16:07;;;;;;;;;;;;;;;1.59;100.00;101395.95;10739663;81;21206;-93
2020/12/19 10:31:12;;;;;;;298.85;120.00;;;;;;;1.53;100.00;101387.55;10736919;81;20483;-94
2020/12/19 10:46:21;;;;;;;108.67;41.80;;;;;;;1.36;100.00;101373.86;10731221;81;21020;-93
2020/12/19 11:01:26;;;;;;;134.05;46.83;;;;;;;1.36;100.00;101373.86;10759893;82;21140;-94
2020/12/19 11:16:33;;;;;;;99.03;38.30;;;;;;;1.51;100.00;101381.59;10737463;82;21124;-92
2020/12/19 11:31:39;;;;;;;107.27;39.85;;;;;;;1.46;100.00;101374.80;10743674;82;21098;-93
2020/12/19 11:46:47;;;;;;;254.07;78.07;;;;;;;1.31;100.00;101354.63;10771506;81;21055;-92
2020/12/19 12:01:53;;;;;;;137.25;47.80;;;;;;;1.41;100.00;101350.86;10726010;82;21043;-93
2020/12/19 12:16:57;;;;;;;89.90;32.65;;;;;;;1.46;100.00;101346.81;10715680;82;21063;-92
2020/12/19 12:32:02;;;;;;;148.38;58.60;;;;;;;1.40;100.00;101331.48;10744357;81;21502;-92
2020/12/19 12:47:08;;;;;;;120.77;43.40;;;;;;;1.46;100.00;101328.71;10731098;82;21048;-93
2020/12/19 13:02:13;;;;;;;112.60;39.33;;;;;;;1.34;100.00;101304.10;10747072;81;21044;-96
2020/12/19 13:17:18;;;;;;;126.58;46.18;;;;;;;1.34;100.00;101304.10;10738064;82;21048;-93
2020/12/19 13:32:23;;;;;;;109.55;39.40;;;;;;;1.55;100.00;101327.57;10729977;81;21013;-92
2020/12/19 13:47:29;;;;;;;105.40;43.95;;;;;;;1.51;100.00;101334.58;10741027;81;21114;-90
2020/12/19 14:02:35;;;;;;;115.47;43.63;;;;;;;1.49;100.00;101344.12;10732129;82;21462;-89
2020/12/19 14:17:39;;;;;;;135.80;50.92;;;;;;;1.49;100.00;101344.12;10740618;81;21508;-91
2020/12/19 14:32:44;;;;;;;114.12;47.35;;;;;;;1.54;100.00;101341.39;10738841;82;21103;-89
2020/12/19 14:47:50;;;;;;;91.78;33.40;;;;;;;1.40;100.00;101351.75;10747096;81;21068;-88
2020/12/19 15:02:54;;;;;;;89.13;34.20;;;;;;;1.22;100.00;101366.56;10358357;84;21070;-88
2020/12/19 15:17:59;;;;;;;111.25;40.25;;;;;;;1.29;100.00;101362.87;10749744;81;21024;-88
2020/12/19 15:33:03;;;;;;;96.97;38.95;;;;;;;1.36;100.00;101373.44;10758845;82;21071;-89
2020/12/19 15:48:07;;;;;;;371.68;122.17;;;;;;;1.25;100.00;101372.45;10759123;81;21043;-88
2020/12/19 16:03:12;;;;;;;127.97;40.88;;;;;;;1.23;100.00;101379.86;10733015;82;21626;-84
2020/12/19 16:18:16;;;;;;;129.05;46.10;;;;;;;1.40;100.00;101363.81;10719280;82;21012;-89
2020/12/19 16:33:21;;;;;;;103.20;42.65;;;;;;;1.38;100.00;101351.41;10728877;82;21019;-89
2020/12/19 16:48:26;;;;;;;90.85;33.85;;;;;;;1.34;100.00;101366.16;10735309;82;21476;-89
2020/12/19 17:03:30;;;;;;;111.22;43.70;;;;;;;1.43;100.00;101363.73;10746958;81;21079;-91
2020/12/19 17:18:34;;;;;;;149.32;57.85;;;;;;;1.43;100.00;101361.15;10739891;81;21024;-88
2020/12/19 17:33:39;;;;;;;119.15;43.13;;;;;;;1.34;100.00;101353.23;10738408;82;21517;-87
2020/12/19 17:48:44;;;;;;;117.93;51.58;;;;;;;1.36;100.00;101357.05;10727947;81;21171;-86
2020/12/19 18:03:50;;;;;;;92.05;40.15;;;;;;;1.11;100.00;101365.58;10744607;81;21095;-88
2020/12/19 18:19:00;;;;;;;87.03;38.40;;;;;;;1.27;100.00;101377.61;10524679;83;21565;-85
2020/12/19 18:34:12;;;;;;;93.58;38.60;;;;;;;1.22;100.00;101375.15;10420985;84;21044;-85
2020/12/19 18:49:17;;;;;;;96.85;40.58;;;;;;;1.11;100.00;101387.55;10391000;84;21033;-85
2020/12/19 19:04:22;;;;;;;89.20;34.35;;;;;;;1.14;100.00;101387.02;10728544;82;21206;-87
2020/12/19 19:19:27;;;;;;;807.65;344.93;;;;;;;1.12;100.00;101385.38;10709289;82;21599;-87
2020/12/19 19:34:35;;;;;;;132.18;64.07;;;;;;;1.05;100.00;101370.51;10328287;84;21453;-82
2020/12/19 19:49:42;;;;;;;76.97;33.08;;;;;;;1.07;100.00;101384.67;10720478;81;21370;-89
2020/12/19 20:04:49;;;;;;;79.72;33.10;;;;;;;1.15;100.00;101383.55;10745172;81;21073;-89
2020/12/19 20:19:56;;;;;;;97.90;40.50;;;;;;;1.14;100.00;101394.78;10748534;81;21013;-85
2020/12/19 20:35:02;;;;;;;100.07;40.90;;;;;;;1.22;100.00;101395.00;10495321;83;21053;-83
2020/12/19 20:50:09;;;;;;;85.95;37.48;;;;;;;1.29;100.00;101400.36;10291982;84;21485;-88
2020/12/19 21:05:13;;;;;;;72.27;31.50;;;;;;;1.14;100.00;101421.91;10740398;82;21028;-90
2020/12/19 21:54:34;;;;;;;72.25;28.50;;;;;;;1.15;100.00;101435.25;9279286;92;21195;-83
2020/12/19 22:11:20;;;;;;;;;;;;;;;;;;;;;
2020/12/19 22:26:48;;;;;;;68.17;30.50;;;;;;;1.20;100.00;101438.13;10085865;86;21184;-91
2020/12/19 22:41:52;;;;;;;57.98;23.38;;;;;;;1.17;100.00;101445.53;10104618;87;21205;-81
2020/12/19 22:56:57;;;;;;;55.95;25.15;;;;;;;0.93;100.00;101435.49;10306974;84;21061;-78
2020/12/19 23:12:02;;;;;;;55.65;24.07;;;;;;;0.93;100.00;101435.49;10457104;82;21078;-85
2020/12/19 23:27:07;;;;;;;50.58;22.37;;;;;;;1.06;100.00;101430.36;10503952;82;21044;-84
2020/12/19 23:42:12;;;;;;;53.20;22.67;;;;;;;1.06;100.00;101416.14;10491632;82;21102;-85
2020/12/19 23:57:16;;;;;;;46.60;19.20;;;;;;;1.19;100.00;101424.80;10455029;82;21156;-87
